createdAt,value
2022-09-02T00:01:00.094Z,48.00
2022-09-02T00:03:33.111Z,48.03
2022-09-02T00:05:59.487Z,48.13
2022-09-02T00:08:25.520Z,48.08
2022-09-02T00:10:51.907Z,48.14
2022-09-02T00:13:19.899Z,48.64
2022-09-02T00:15:47.930Z,48.21
2022-09-02T00:18:15.780Z,48.28
2022-09-02T00:20:46.465Z,48.27
2022-09-02T00:23:12.660Z,48.70
2022-09-02T00:25:39.592Z,47.99
2022-09-02T00:28:06.518Z,48.22
2022-09-02T00:30:34.900Z,48.29
2022-09-02T00:33:00.986Z,48.60
2022-09-02T00:35:27.182Z,48.58
2022-09-02T00:37:53.251Z,48.14
2022-09-02T00:40:19.247Z,48.76
2022-09-02T00:42:45.134Z,48.58
2022-09-02T00:45:11.224Z,48.55
2022-09-02T00:47:37.342Z,48.51
2022-09-02T00:50:09.145Z,48.45
2022-09-02T00:52:45.626Z,48.73
2022-09-02T00:55:18.815Z,48.60
2022-09-02T00:58:00.146Z,48.40
2022-09-02T01:00:34.520Z,48.77
2022-09-02T01:03:05.407Z,48.38
2022-09-02T01:05:35.839Z,48.63
2022-09-02T01:08:06.590Z,48.42
2022-09-02T01:10:34.085Z,48.85
2022-09-02T01:13:06.324Z,49.21
2022-09-02T01:15:36.601Z,48.97
2022-09-02T01:18:07.010Z,48.25
2022-09-02T01:20:35.842Z,48.34
2022-09-02T01:23:01.870Z,48.94
2022-09-02T01:25:31.081Z,48.97
2022-09-02T01:28:07.740Z,48.69
2022-09-02T01:30:35.346Z,49.10
2022-09-02T01:33:01.528Z,49.16
2022-09-02T01:35:28.765Z,49.54
2022-09-02T01:37:57.300Z,49.59
2022-09-02T01:40:24.838Z,49.39
2022-09-02T01:42:55.317Z,49.16
2022-09-02T01:45:21.992Z,49.34
2022-09-02T01:47:48.025Z,49.23
2022-09-02T01:50:14.035Z,49.72
2022-09-02T01:52:39.885Z,49.69
2022-09-02T01:55:05.940Z,49.89
2022-09-02T01:57:32.025Z,49.81
2022-09-02T01:59:58.311Z,49.52
2022-09-02T02:02:24.176Z,49.68
2022-09-02T02:04:50.737Z,50.01
2022-09-02T02:07:18.649Z,50.45
2022-09-02T02:09:44.851Z,49.95
2022-09-02T02:12:10.782Z,50.32
2022-09-02T02:14:36.994Z,50.16
2022-09-02T02:17:03.829Z,50.20
2022-09-02T02:19:29.864Z,50.58
2022-09-02T02:21:57.541Z,50.48
2022-09-02T02:24:24.240Z,50.51
2022-09-02T02:26:50.339Z,50.80
2022-09-02T02:29:16.270Z,50.40
2022-09-02T02:31:42.932Z,50.73
2022-09-02T02:34:09.805Z,50.58
2022-09-02T02:36:37.087Z,50.71
2022-09-02T02:39:04.764Z,50.87
2022-09-02T02:41:31.471Z,51.44
2022-09-02T02:43:57.410Z,50.84
2022-09-02T02:46:23.205Z,50.90
2022-09-02T02:48:49.078Z,51.20
2022-09-02T02:51:15.010Z,51.34
2022-09-02T02:53:40.822Z,51.34
2022-09-02T02:56:07.915Z,51.75
2022-09-02T02:58:33.984Z,51.35
2022-09-02T03:01:00.342Z,51.50
2022-09-02T03:03:27.274Z,51.87
2022-09-02T03:05:53.315Z,51.62
2022-09-02T03:08:21.074Z,51.77
2022-09-02T03:10:50.768Z,52.00
2022-09-02T03:13:17.328Z,52.05
2022-09-02T03:15:43.258Z,52.08
2022-09-02T03:18:09.176Z,52.59
2022-09-02T03:20:35.178Z,52.54
2022-09-02T03:23:01.115Z,52.70
2022-09-02T03:25:32.248Z,52.76
2022-09-02T03:28:02.464Z,52.98
2022-09-02T03:30:29.877Z,52.79
2022-09-02T03:33:03.613Z,53.05
2022-09-02T03:35:30.716Z,53.36
2022-09-02T03:37:57.423Z,53.23
2022-09-02T03:40:26.930Z,53.88
2022-09-02T03:42:56.746Z,53.75
2022-09-02T03:45:25.785Z,53.85
2022-09-02T03:47:53.361Z,53.70
2022-09-02T03:50:33.120Z,53.37
2022-09-02T03:52:59.714Z,53.80
2022-09-02T03:55:26.573Z,54.10
2022-09-02T03:57:52.643Z,54.06
2022-09-02T04:00:23.293Z,54.21
2022-09-02T04:02:50.612Z,54.54
2022-09-02T04:05:16.701Z,55.07
2022-09-02T04:07:43.713Z,54.64
2022-09-02T04:10:13.281Z,54.83
2022-09-02T04:12:39.459Z,54.76
2022-09-02T04:15:07.617Z,54.50
2022-09-02T04:18:29.619Z,54.80
2022-09-02T04:21:09.900Z,54.90
2022-09-02T04:23:36.381Z,54.93
2022-09-02T04:26:12.683Z,55.09
2022-09-02T04:28:39.084Z,54.94
2022-09-02T04:31:10.793Z,55.35
2022-09-02T04:33:37.968Z,55.13
2022-09-02T04:36:07.071Z,54.90
2022-09-02T04:38:34.333Z,54.83
2022-09-02T04:41:01.185Z,54.68
2022-09-02T04:43:27.025Z,55.28
2022-09-02T04:45:52.938Z,55.03
2022-09-02T04:48:19.092Z,55.45
2022-09-02T04:50:45.234Z,55.74
2022-09-02T04:53:11.703Z,55.54
2022-09-02T04:55:39.995Z,54.93
2022-09-02T04:58:05.815Z,55.77
2022-09-02T05:00:32.092Z,56.48
2022-09-02T05:02:58.033Z,55.85
2022-09-02T05:05:23.924Z,56.56
2022-09-02T05:07:49.836Z,56.65
2022-09-02T05:10:15.633Z,56.52
2022-09-02T05:12:43.005Z,56.75
2022-09-02T05:15:11.514Z,56.85
2022-09-02T05:17:37.768Z,56.64
2022-09-02T05:20:05.460Z,57.00
2022-09-02T05:22:32.230Z,57.09
2022-09-02T05:25:04.433Z,56.67
2022-09-02T05:27:30.344Z,56.89
2022-09-02T05:29:58.699Z,56.54
2022-09-02T05:32:26.744Z,56.79
2022-09-02T05:34:53.948Z,56.58
2022-09-02T05:37:20.144Z,56.75
2022-09-02T05:39:46.075Z,57.04
2022-09-02T05:42:11.888Z,57.07
2022-09-02T05:44:38.280Z,56.48
2022-09-02T05:47:04.550Z,56.02
2022-09-02T05:49:30.579Z,55.72
2022-09-02T05:51:58.904Z,56.18
2022-09-02T05:54:28.037Z,56.75
2022-09-02T05:56:58.331Z,56.66
2022-09-02T05:59:26.277Z,56.15
2022-09-02T06:01:53.205Z,55.93
2022-09-02T06:04:21.462Z,55.95
2022-09-02T06:06:50.988Z,55.81
2022-09-02T06:09:20.208Z,55.72
2022-09-02T06:11:48.757Z,55.46
2022-09-02T06:14:21.035Z,55.41
2022-09-02T06:16:49.672Z,56.07
2022-09-02T06:19:19.623Z,55.93
2022-09-02T06:21:46.636Z,55.76
2022-09-02T06:24:12.685Z,55.79
2022-09-02T06:26:39.523Z,55.40
2022-09-02T06:29:06.552Z,55.41
2022-09-02T06:31:34.593Z,55.44
2022-09-02T06:34:01.218Z,55.44
2022-09-02T06:36:30.060Z,55.02
2022-09-02T06:38:58.195Z,55.20
2022-09-02T06:41:28.094Z,54.80
2022-09-02T06:44:00.288Z,54.85
2022-09-02T06:46:35.644Z,54.58
2022-09-02T06:49:02.813Z,54.72
2022-09-02T06:51:31.769Z,54.94
2022-09-02T06:53:58.334Z,54.96
2022-09-02T06:56:25.893Z,54.14
2022-09-02T06:58:52.197Z,54.19
2022-09-02T07:01:23.731Z,54.42
2022-09-02T07:04:08.800Z,54.11
2022-09-02T07:06:37.215Z,54.67
2022-09-02T07:09:05.204Z,54.20
2022-09-02T07:11:32.040Z,53.96
2022-09-02T07:14:00.970Z,53.54
2022-09-02T07:16:29.535Z,53.94
2022-09-02T07:18:56.298Z,54.12
2022-09-02T07:21:22.877Z,53.85
2022-09-02T07:23:48.702Z,53.77
2022-09-02T07:26:16.603Z,53.42
2022-09-02T07:28:43.005Z,53.22
2022-09-02T07:31:10.587Z,52.63
2022-09-02T07:33:36.887Z,52.85
2022-09-02T07:36:05.060Z,52.89
2022-09-02T07:38:37.343Z,52.55
2022-09-02T07:41:04.623Z,52.74
2022-09-02T07:43:31.644Z,52.91
2022-09-02T07:46:00.030Z,52.59
2022-09-02T07:48:27.305Z,52.10
2022-09-02T07:50:53.949Z,52.40
2022-09-02T07:53:20.091Z,52.06
2022-09-02T07:55:46.646Z,51.58
2022-09-02T07:58:16.049Z,52.02
2022-09-02T08:00:42.818Z,51.61
2022-09-02T08:03:10.629Z,51.66
2022-09-02T08:05:39.057Z,51.04
2022-09-02T08:08:06.009Z,51.20
2022-09-02T08:10:32.267Z,50.66
2022-09-02T08:13:02.424Z,50.93
2022-09-02T08:15:30.434Z,49.74
2022-09-02T08:17:56.775Z,49.64
2022-09-02T08:20:23.809Z,49.81
2022-09-02T08:22:55.995Z,49.00
2022-09-02T08:25:35.829Z,49.26
2022-09-02T08:28:02.305Z,48.77
2022-09-02T08:30:28.174Z,47.92
2022-09-02T08:32:54.109Z,47.44
2022-09-02T08:35:20.946Z,47.04
2022-09-02T08:37:46.779Z,46.98
2022-09-02T08:40:16.788Z,47.20
2022-09-02T08:42:51.821Z,47.08
2022-09-02T08:45:29.551Z,47.52
2022-09-02T08:48:07.655Z,46.94
2022-09-02T08:50:36.874Z,47.22
2022-09-02T08:53:29.843Z,47.50
2022-09-02T08:55:58.365Z,47.11
2022-09-02T08:58:28.284Z,46.72
2022-09-02T09:01:09.876Z,45.91
2022-09-02T09:03:50.893Z,46.51
2022-09-02T09:06:34.081Z,45.25
2022-09-02T09:09:22.403Z,45.66
2022-09-02T09:12:07.357Z,45.84
2022-09-02T09:14:47.912Z,45.58
2022-09-02T09:17:13.683Z,45.55
2022-09-02T09:19:47.188Z,46.55
2022-09-02T09:22:17.757Z,46.05
2022-09-02T09:24:49.013Z,46.26
2022-09-02T09:27:20.384Z,45.08
2022-09-02T09:29:48.531Z,45.03
2022-09-02T09:32:36.531Z,44.52
2022-09-02T09:35:06.442Z,43.44
2022-09-02T09:37:38.499Z,41.33
2022-09-02T09:40:26.557Z,40.74
2022-09-02T09:43:07.101Z,38.98
2022-09-02T09:45:46.013Z,38.96
2022-09-02T09:48:29.157Z,39.57
2022-09-02T09:50:54.878Z,38.99
2022-09-02T09:53:21.869Z,39.05
2022-09-02T09:55:54.105Z,39.58
2022-09-02T09:58:22.313Z,38.72
2022-09-02T10:00:48.403Z,38.96
2022-09-02T10:03:22.938Z,38.42
2022-09-02T10:05:53.433Z,37.86
2022-09-02T10:08:22.445Z,36.30
2022-09-02T10:11:06.038Z,36.43
2022-09-02T10:13:33.956Z,35.66
2022-09-02T10:16:08.463Z,35.22
2022-09-02T10:18:52.817Z,35.16
2022-09-02T10:21:32.778Z,36.23
2022-09-02T10:24:13.037Z,35.99
2022-09-02T10:26:52.384Z,35.77
2022-09-02T10:29:55.365Z,34.87
2022-09-02T10:32:46.022Z,34.41
2022-09-02T10:35:28.789Z,34.34
2022-09-02T10:38:16.303Z,35.24
2022-09-02T10:40:57.961Z,35.25
2022-09-02T10:43:56.891Z,35.84
2022-09-02T10:46:25.129Z,35.22
2022-09-02T10:49:20.420Z,35.44
2022-09-02T10:51:53.833Z,34.38
2022-09-02T10:54:57.280Z,35.06
2022-09-02T10:57:32.073Z,34.96
2022-09-02T11:00:26.128Z,33.74
2022-09-02T11:03:12.097Z,33.42
2022-09-02T11:05:49.463Z,33.24
2022-09-02T11:08:36.144Z,33.13
2022-09-02T11:11:10.859Z,32.94
2022-09-02T11:13:52.422Z,32.92
2022-09-02T11:16:20.410Z,33.08
2022-09-02T11:19:01.971Z,33.21
2022-09-02T11:22:04.939Z,33.22
2022-09-02T11:24:37.967Z,32.79
2022-09-02T11:27:42.033Z,32.86
2022-09-02T11:30:17.569Z,33.50
2022-09-02T11:32:46.317Z,33.03
2022-09-02T11:35:41.960Z,33.09
2022-09-02T11:38:42.041Z,33.37
2022-09-02T11:41:37.871Z,33.57
2022-09-02T11:44:15.986Z,33.75
2022-09-02T11:46:54.281Z,34.18
2022-09-02T11:50:01.513Z,34.26
2022-09-02T11:52:52.579Z,34.51
2022-09-02T11:55:40.938Z,34.44
2022-09-02T11:58:07.730Z,34.63
2022-09-02T12:00:38.375Z,33.61
2022-09-02T12:03:11.876Z,31.64
2022-09-02T12:05:43.004Z,32.47
2022-09-02T12:08:35.999Z,33.34
2022-09-02T12:11:06.583Z,34.40
2022-09-02T12:13:44.951Z,34.10
2022-09-02T12:16:18.541Z,34.84
2022-09-02T12:18:52.783Z,35.33
2022-09-02T12:21:23.305Z,34.78
2022-09-02T12:23:55.149Z,33.92
2022-09-02T12:26:50.001Z,34.22
2022-09-02T12:29:23.965Z,34.15
2022-09-02T12:31:52.148Z,34.46
2022-09-02T12:34:24.810Z,34.14
2022-09-02T12:36:54.531Z,34.15
2022-09-02T12:39:29.733Z,33.21
2022-09-02T12:41:55.831Z,33.60
2022-09-02T12:44:28.177Z,33.61
2022-09-02T12:46:57.816Z,34.33
2022-09-02T12:49:38.264Z,34.52
2022-09-02T12:52:07.769Z,34.23
2022-09-02T12:54:49.779Z,33.94
2022-09-02T12:57:17.288Z,33.32
2022-09-02T12:59:45.439Z,32.30
2022-09-02T13:02:41.708Z,31.12
2022-09-02T13:05:29.664Z,30.85
2022-09-02T13:08:47.262Z,31.84
2022-09-02T13:11:40.869Z,32.38
2022-09-02T13:14:13.143Z,30.58
2022-09-02T13:16:55.628Z,29.59
2022-09-02T13:19:34.073Z,28.96
2022-09-02T13:22:08.835Z,28.79
2022-09-02T13:25:00.615Z,29.89
2022-09-02T13:28:06.118Z,29.79
2022-09-02T13:30:54.112Z,29.16
2022-09-02T13:33:20.931Z,29.19
2022-09-02T13:35:53.728Z,29.68
2022-09-02T13:38:24.042Z,30.17
2022-09-02T13:40:51.357Z,29.17
2022-09-02T13:43:20.497Z,29.24
2022-09-02T13:45:48.438Z,29.24
2022-09-02T13:48:25.125Z,29.79
2022-09-02T13:50:53.902Z,30.92
2022-09-02T13:56:24.862Z,30.43
2022-09-02T13:58:57.347Z,30.65
2022-09-02T14:01:28.291Z,31.10
2022-09-02T14:03:57.385Z,31.54
2022-09-02T14:06:32.478Z,31.30
2022-09-02T14:09:01.297Z,30.57
2022-09-02T14:11:29.317Z,29.97
2022-09-02T14:13:56.233Z,29.34
2022-09-02T14:16:26.093Z,29.34
2022-09-02T14:19:07.327Z,29.03
2022-09-02T14:21:35.102Z,29.15
2022-09-02T14:24:01.889Z,28.92
2022-09-02T14:26:34.533Z,29.35
2022-09-02T14:29:11.893Z,29.28
2022-09-02T14:31:37.822Z,29.24
2022-09-02T14:34:05.591Z,28.95
2022-09-02T14:36:37.194Z,29.50
2022-09-02T14:39:16.093Z,29.87
2022-09-02T14:41:44.951Z,30.14
2022-09-02T14:44:17.114Z,30.45
2022-09-02T14:46:52.490Z,30.17
2022-09-02T14:49:31.712Z,30.39
2022-09-02T14:52:05.010Z,29.04
2022-09-02T14:54:51.748Z,29.49
2022-09-02T14:57:22.255Z,28.84
2022-09-02T14:59:49.062Z,28.34
2022-09-02T15:02:26.945Z,28.72
2022-09-02T15:04:57.622Z,28.65
2022-09-02T15:07:25.766Z,28.86
2022-09-02T15:09:51.877Z,28.85
2022-09-02T15:12:31.340Z,28.30
2022-09-02T15:14:57.971Z,28.24
2022-09-02T15:17:24.641Z,28.75
2022-09-02T15:19:50.944Z,28.65
2022-09-02T15:22:17.923Z,29.69
2022-09-02T15:24:43.980Z,29.81
2022-09-02T15:27:10.652Z,30.33
2022-09-02T15:29:36.588Z,30.06
2022-09-02T15:32:03.421Z,29.59
2022-09-02T15:34:33.902Z,29.33
2022-09-02T15:37:00.559Z,29.57
2022-09-02T15:39:27.219Z,29.42
2022-09-02T15:41:54.742Z,29.31
2022-09-02T15:44:28.679Z,29.05
2022-09-02T15:46:55.232Z,29.36
2022-09-02T15:49:22.953Z,29.42
2022-09-02T15:51:49.653Z,29.34
2022-09-02T15:54:18.031Z,29.19
2022-09-02T15:56:46.040Z,29.07
2022-09-02T15:59:19.512Z,29.47
2022-09-02T16:01:51.068Z,29.20
2022-09-02T16:04:17.372Z,29.78
2022-09-02T16:06:47.378Z,29.96
2022-09-02T16:09:15.075Z,30.33
2022-09-02T16:11:47.212Z,30.33
2022-09-02T16:14:14.226Z,30.64
2022-09-02T16:16:41.761Z,30.90
2022-09-02T16:19:09.344Z,30.93
2022-09-02T16:21:38.389Z,30.50
2022-09-02T16:24:05.731Z,30.28
2022-09-02T16:26:34.155Z,30.77
2022-09-02T16:29:03.283Z,30.25
2022-09-02T16:31:30.794Z,30.09
2022-09-02T16:33:59.852Z,29.56
2022-09-02T16:36:31.959Z,29.33
2022-09-02T16:39:00.349Z,29.08
2022-09-02T16:41:34.922Z,29.22
2022-09-02T16:44:24.949Z,28.83
2022-09-02T16:46:51.859Z,29.47
2022-09-02T16:49:19.391Z,29.51
2022-09-02T16:51:47.117Z,29.76
2022-09-02T16:54:17.947Z,29.42
2022-09-02T16:56:48.814Z,29.76
2022-09-02T16:59:14.733Z,30.09
2022-09-02T17:01:40.799Z,30.16
2022-09-02T17:04:08.735Z,30.21
2022-09-02T17:06:39.793Z,30.22
2022-09-02T17:09:08.545Z,30.37
2022-09-02T17:11:37.198Z,31.25
2022-09-02T17:14:05.794Z,31.34
2022-09-02T17:16:37.461Z,31.67
2022-09-02T17:19:04.302Z,31.60
2022-09-02T17:21:40.576Z,32.24
2022-09-02T17:24:08.045Z,32.66
2022-09-02T17:26:38.658Z,32.52
2022-09-02T17:29:37.880Z,32.98
2022-09-02T17:32:02.282Z,33.06
2022-09-02T17:34:28.133Z,33.26
2022-09-02T17:36:53.929Z,33.21
2022-09-02T17:39:20.019Z,33.65
2022-09-02T17:41:56.448Z,33.90
2022-09-02T17:44:26.877Z,34.35
2022-09-02T17:46:57.209Z,34.71
2022-09-02T17:49:23.073Z,34.77
2022-09-02T17:51:49.377Z,34.78
2022-09-02T17:54:15.428Z,34.81
2022-09-02T17:57:02.048Z,34.69
2022-09-02T17:59:39.867Z,34.40
2022-09-02T18:02:14.634Z,35.11
2022-09-02T18:05:01.847Z,35.22
2022-09-02T18:08:00.788Z,35.85
2022-09-02T18:10:39.709Z,36.07
2022-09-02T18:13:09.324Z,36.33
2022-09-02T18:15:58.077Z,36.54
2022-09-02T18:18:24.624Z,37.10
2022-09-02T18:21:08.550Z,37.11
2022-09-02T18:24:10.093Z,36.93
2022-09-02T18:26:35.879Z,37.24
2022-09-02T18:29:05.197Z,36.67
2022-09-02T18:31:48.977Z,36.74
2022-09-02T18:34:36.376Z,36.94
2022-09-02T18:37:15.544Z,37.17
2022-09-02T18:40:12.493Z,37.37
2022-09-02T18:42:59.637Z,36.07
2022-09-02T18:45:38.523Z,35.71
2022-09-02T18:48:13.267Z,35.71
2022-09-02T18:50:52.347Z,35.93
2022-09-02T18:53:22.677Z,36.05
2022-09-02T18:55:51.448Z,36.29
2022-09-02T18:58:33.229Z,36.43
2022-09-02T19:01:38.862Z,37.06
2022-09-02T19:04:04.777Z,36.95
2022-09-02T19:06:35.743Z,37.09
2022-09-02T19:09:06.272Z,37.35
2022-09-02T19:11:34.450Z,37.39
2022-09-02T19:14:17.988Z,37.47
2022-09-02T19:16:44.021Z,37.81
2022-09-02T19:19:09.998Z,37.78
2022-09-02T19:21:40.293Z,38.12
2022-09-02T19:24:11.969Z,38.73
2022-09-02T19:26:42.423Z,38.90
2022-09-02T19:29:12.102Z,39.32
2022-09-02T19:31:40.401Z,39.38
2022-09-02T19:34:07.608Z,38.96
2022-09-02T19:36:38.236Z,38.74
2022-09-02T19:39:04.719Z,38.35
2022-09-02T19:41:30.569Z,38.27
2022-09-02T19:43:56.618Z,38.76
2022-09-02T19:47:04.112Z,38.70
2022-09-02T19:49:09.342Z,38.82
2022-09-02T19:51:35.677Z,39.16
2022-09-02T19:54:02.646Z,39.58
2022-09-02T19:56:28.572Z,40.09
2022-09-02T19:58:54.417Z,40.42
2022-09-02T20:01:20.369Z,39.91
2022-09-02T20:03:46.288Z,39.79
2022-09-02T20:06:12.145Z,40.18
2022-09-02T20:08:37.985Z,39.96
2022-09-02T20:11:05.346Z,40.32
2022-09-02T20:13:40.734Z,40.61
2022-09-02T20:16:19.478Z,40.76
2022-09-02T20:18:47.568Z,41.19
2022-09-02T20:21:20.518Z,41.03
2022-09-02T20:23:47.192Z,40.88
2022-09-02T20:26:23.221Z,41.20
2022-09-02T20:29:02.077Z,41.64
2022-09-02T20:31:30.721Z,41.68
2022-09-02T20:34:26.625Z,41.92
2022-09-02T20:37:23.623Z,42.47
2022-09-02T20:40:10.863Z,42.41
2022-09-02T20:43:03.737Z,42.39
2022-09-02T20:45:32.252Z,42.36
2022-09-02T20:48:10.063Z,42.57
2022-09-02T20:51:03.407Z,42.30
2022-09-02T20:53:45.565Z,42.57
2022-09-02T20:56:28.153Z,42.42
2022-09-02T20:59:03.501Z,42.85
2022-09-02T21:01:33.543Z,43.29
2022-09-02T21:03:59.310Z,43.24
2022-09-02T21:06:31.115Z,43.31
2022-09-02T21:09:05.758Z,43.13
2022-09-02T21:11:42.600Z,43.28
2022-09-02T21:14:14.521Z,43.44
2022-09-02T21:16:58.716Z,43.35
2022-09-02T21:20:18.992Z,43.57
2022-09-02T21:22:49.528Z,43.23
2022-09-02T21:25:40.947Z,43.96
2022-09-02T21:28:26.526Z,44.22
2022-09-02T21:31:01.195Z,43.89
2022-09-02T21:33:31.926Z,44.29
2022-09-02T21:35:59.335Z,44.36
2022-09-02T21:38:36.530Z,44.56
2022-09-02T21:41:38.667Z,44.67
2022-09-02T21:44:21.956Z,44.99
2022-09-02T21:47:25.213Z,44.89
2022-09-02T21:50:07.437Z,44.91
2022-09-02T21:52:56.357Z,44.83
2022-09-02T21:55:44.038Z,45.16
2022-09-02T21:58:21.811Z,45.47
2022-09-02T22:00:58.617Z,45.26
2022-09-02T22:03:39.287Z,44.86
2022-09-02T22:06:35.357Z,45.46
2022-09-02T22:09:04.208Z,45.59
2022-09-02T22:11:42.822Z,46.04
2022-09-02T22:14:15.410Z,45.85
2022-09-02T22:16:45.337Z,45.41
2022-09-02T22:19:12.816Z,46.10
2022-09-02T22:21:50.359Z,45.89
2022-09-02T22:24:20.878Z,45.86
2022-09-02T22:26:57.955Z,45.86
2022-09-02T22:29:37.015Z,46.10
2022-09-02T22:32:07.355Z,46.20
2022-09-02T22:34:42.912Z,46.16
2022-09-02T22:37:16.413Z,45.93
2022-09-02T22:39:55.711Z,46.36
2022-09-02T22:42:34.087Z,46.82
2022-09-02T22:45:30.772Z,46.79
2022-09-02T22:48:26.773Z,46.86
2022-09-02T22:51:19.245Z,46.95
2022-09-02T22:53:47.313Z,47.17
2022-09-02T22:56:21.892Z,47.21
2022-09-02T22:59:16.150Z,46.73
2022-09-02T23:01:54.689Z,47.30
2022-09-02T23:04:29.248Z,47.27
2022-09-02T23:06:57.473Z,47.16
2022-09-02T23:09:23.368Z,47.40
2022-09-02T23:12:25.357Z,47.51
2022-09-02T23:15:37.647Z,48.10
2022-09-02T23:18:41.663Z,48.03
2022-09-02T23:21:39.868Z,48.35
2022-09-02T23:24:32.255Z,48.39
2022-09-02T23:27:29.532Z,48.10
2022-09-02T23:29:55.392Z,48.39
2022-09-02T23:32:51.354Z,48.29
2022-09-02T23:35:17.236Z,48.28
2022-09-02T23:38:04.781Z,48.73
2022-09-02T23:40:39.756Z,48.38
2022-09-02T23:43:05.972Z,48.86
2022-09-02T23:45:33.117Z,48.78
2022-09-02T23:48:10.737Z,48.82
2022-09-02T23:50:57.351Z,48.99
2022-09-02T23:53:36.759Z,48.63
2022-09-02T23:56:17.710Z,48.41
2022-09-02T23:58:59.018Z,48.60
